sensor_id;sensor_type;location;lat;lon;timestamp;pressure;altitude;pressure_sealevel;temperature;humidity
20228;BME280;12195;55.790;37.572;2023-04-20T00:01:59;100493.73;;;10.36;33.10
20228;BME280;12195;55.790;37.572;2023-04-20T00:04:33;100485.92;;;10.34;32.99
20228;BME280;12195;55.790;37.572;2023-04-20T00:07:06;100478.20;;;10.31;33.49
20228;BME280;12195;55.790;37.572;2023-04-20T00:09:38;100475.69;;;10.28;33.59
20228;BME280;12195;55.790;37.572;2023-04-20T00:12:10;100481.05;;;10.25;33.31
20228;BME280;12195;55.790;37.572;2023-04-20T00:14:42;100473.39;;;10.21;33.44
20228;BME280;12195;55.790;37.572;2023-04-20T00:17:14;100474.34;;;10.18;33.36
20228;BME280;12195;55.790;37.572;2023-04-20T00:19:47;100477.72;;;10.22;33.27
20228;BME280;12195;55.790;37.572;2023-04-20T00:22:19;100475.09;;;10.22;33.12
20228;BME280;12195;55.790;37.572;2023-04-20T00:24:51;100475.15;;;10.20;33.47
20228;BME280;12195;55.790;37.572;2023-04-20T00:27:23;100475.32;;;10.16;33.64
20228;BME280;12195;55.790;37.572;2023-04-20T00:29:55;100476.42;;;10.10;33.77
20228;BME280;12195;55.790;37.572;2023-04-20T00:32:27;100473.25;;;10.02;34.15
20228;BME280;12195;55.790;37.572;2023-04-20T00:35:00;100473.47;;;9.96;34.00
20228;BME280;12195;55.790;37.572;2023-04-20T00:37:32;100479.59;;;9.97;34.16
20228;BME280;12195;55.790;37.572;2023-04-20T00:40:05;100473.64;;;9.92;34.49
20228;BME280;12195;55.790;37.572;2023-04-20T00:42:38;100469.52;;;9.86;34.61
20228;BME280;12195;55.790;37.572;2023-04-20T00:45:11;100460.84;;;9.84;34.67
20228;BME280;12195;55.790;37.572;2023-04-20T00:47:46;100462.80;;;9.79;35.10
20228;BME280;12195;55.790;37.572;2023-04-20T00:50:20;100459.45;;;9.76;34.95
20228;BME280;12195;55.790;37.572;2023-04-20T00:52:52;100459.62;;;9.71;35.09
20228;BME280;12195;55.790;37.572;2023-04-20T00:55:26;100454.44;;;9.70;34.94
20228;BME280;12195;55.790;37.572;2023-04-20T00:58:02;100457.11;;;9.68;34.87
20228;BME280;12195;55.790;37.572;2023-04-20T01:00:35;100451.87;;;9.68;34.80
20228;BME280;12195;55.790;37.572;2023-04-20T01:03:11;100444.92;;;9.67;34.89
20228;BME280;12195;55.790;37.572;2023-04-20T01:05:43;100441.38;;;9.68;35.01
20228;BME280;12195;55.790;37.572;2023-04-20T01:08:25;100447.55;;;9.67;35.09
20228;BME280;12195;55.790;37.572;2023-04-20T01:13:27;100442.47;;;9.63;35.20
20228;BME280;12195;55.790;37.572;2023-04-20T01:16:00;100438.34;;;9.57;35.58
20228;BME280;12195;55.790;37.572;2023-04-20T01:18:45;100434.19;;;9.52;35.57
20228;BME280;12195;55.790;37.572;2023-04-20T01:21:19;100436.92;;;9.49;35.70
20228;BME280;12195;55.790;37.572;2023-04-20T01:23:59;100434.34;;;9.47;35.74
20228;BME280;12195;55.790;37.572;2023-04-20T01:26:35;100432.66;;;9.46;35.90
20228;BME280;12195;55.790;37.572;2023-04-20T01:29:09;100428.44;;;9.42;36.03
20228;BME280;12195;55.790;37.572;2023-04-20T01:31:44;100431.98;;;9.41;36.15
20228;BME280;12195;55.790;37.572;2023-04-20T01:34:18;100437.33;;;9.38;36.23
20228;BME280;12195;55.790;37.572;2023-04-20T01:36:56;100426.91;;;9.37;36.53
20228;BME280;12195;55.790;37.572;2023-04-20T01:39:29;100427.88;;;9.34;36.24
20228;BME280;12195;55.790;37.572;2023-04-20T01:42:02;100428.03;;;9.30;36.58
20228;BME280;12195;55.790;37.572;2023-04-20T01:44:34;100422.07;;;9.26;36.90
20228;BME280;12195;55.790;37.572;2023-04-20T01:47:10;100424.02;;;9.21;37.00
20228;BME280;12195;55.790;37.572;2023-04-20T01:49:42;100419.80;;;9.17;37.08
20228;BME280;12195;55.790;37.572;2023-04-20T01:52:16;100421.66;;;9.14;37.14
20228;BME280;12195;55.790;37.572;2023-04-20T01:54:50;100425.25;;;9.11;37.33
20228;BME280;12195;55.790;37.572;2023-04-20T01:57:23;100425.45;;;9.07;37.37
20228;BME280;12195;55.790;37.572;2023-04-20T01:59:55;100420.31;;;9.04;37.44
20228;BME280;12195;55.790;37.572;2023-04-20T02:02:28;100418.72;;;9.00;37.55
20228;BME280;12195;55.790;37.572;2023-04-20T02:05:03;100417.17;;;8.94;37.72
20228;BME280;12195;55.790;37.572;2023-04-20T02:07:42;100411.98;;;8.93;37.84
20228;BME280;12195;55.790;37.572;2023-04-20T02:10:11;100408.63;;;8.89;37.83
20228;BME280;12195;55.790;37.572;2023-04-20T02:12:48;100414.89;;;8.85;38.04
20228;BME280;12195;55.790;37.572;2023-04-20T02:15:22;100407.95;;;8.84;38.39
20228;BME280;12195;55.790;37.572;2023-04-20T02:17:56;100413.30;;;8.81;38.26
20228;BME280;12195;55.790;37.572;2023-04-20T02:20:28;100412.48;;;8.79;38.48
20228;BME280;12195;55.790;37.572;2023-04-20T02:23:03;100409.13;;;8.76;38.72
20228;BME280;12195;55.790;37.572;2023-04-20T02:25:37;100415.38;;;8.72;38.73
20228;BME280;12195;55.790;37.572;2023-04-20T02:28:09;100415.44;;;8.70;38.83
20228;BME280;12195;55.790;37.572;2023-04-20T02:30:42;100418.09;;;8.69;39.03
20228;BME280;12195;55.790;37.572;2023-04-20T02:33:14;100406.80;;;8.68;39.09
20228;BME280;12195;55.790;37.572;2023-04-20T02:35:48;100408.50;;;8.69;39.22
20228;BME280;12195;55.790;37.572;2023-04-20T02:38:20;100417.91;;;8.75;39.46
20228;BME280;12195;55.790;37.572;2023-04-20T02:40:54;100415.18;;;8.78;39.52
20228;BME280;12195;55.790;37.572;2023-04-20T02:43:34;100413.34;;;8.80;39.16
20228;BME280;12195;55.790;37.572;2023-04-20T02:46:01;100415.81;;;8.84;39.63
20228;BME280;12195;55.790;37.572;2023-04-20T02:48:33;100418.19;;;8.90;39.28
20228;BME280;12195;55.790;37.572;2023-04-20T02:51:05;100411.83;;;8.97;39.21
20228;BME280;12195;55.790;37.572;2023-04-20T02:53:39;100416.77;;;9.05;39.22
20228;BME280;12195;55.790;37.572;2023-04-20T02:56:13;100410.51;;;9.09;39.04
20228;BME280;12195;55.790;37.572;2023-04-20T02:58:50;100406.81;;;9.14;39.38
20228;BME280;12195;55.790;37.572;2023-04-20T03:01:36;100411.89;;;9.19;38.98
20228;BME280;12195;55.790;37.572;2023-04-20T03:04:10;100409.75;;;9.28;38.79
20228;BME280;12195;55.790;37.572;2023-04-20T03:06:44;100409.75;;;9.28;38.79
20228;BME280;12195;55.790;37.572;2023-04-20T03:09:18;100408.66;;;9.34;38.73
20228;BME280;12195;55.790;37.572;2023-04-20T03:11:58;100410.14;;;9.41;38.60
20228;BME280;12195;55.790;37.572;2023-04-20T03:14:33;100403.88;;;9.45;38.40
20228;BME280;12195;55.790;37.572;2023-04-20T03:17:06;100401.14;;;9.48;38.61
20228;BME280;12195;55.790;37.572;2023-04-20T03:19:38;100401.86;;;9.51;39.04
20228;BME280;12195;55.790;37.572;2023-04-20T03:22:11;100404.32;;;9.56;38.78
20228;BME280;12195;55.790;37.572;2023-04-20T03:24:44;100391.06;;;9.59;38.69
20228;BME280;12195;55.790;37.572;2023-04-20T03:27:19;100403.02;;;9.66;38.57
20228;BME280;12195;55.790;37.572;2023-04-20T03:29:53;100387.17;;;9.69;38.82
20228;BME280;12195;55.790;37.572;2023-04-20T03:32:26;100392.97;;;9.77;38.57
20228;BME280;12195;55.790;37.572;2023-04-20T03:34:59;100390.14;;;9.81;38.32
20228;BME280;12195;55.790;37.572;2023-04-20T03:37:32;100395.09;;;9.89;38.24
20228;BME280;12195;55.790;37.572;2023-04-20T03:40:05;100386.19;;;9.93;38.26
20228;BME280;12195;55.790;37.572;2023-04-20T03:42:38;100389.53;;;9.96;38.00
20228;BME280;12195;55.790;37.572;2023-04-20T03:45:12;100393.67;;;10.02;38.15
20228;BME280;12195;55.790;37.572;2023-04-20T03:47:44;100385.63;;;10.06;38.29
20228;BME280;12195;55.790;37.572;2023-04-20T03:50:16;100396.75;;;10.13;38.10
20228;BME280;12195;55.790;37.572;2023-04-20T03:52:50;100387.73;;;10.18;38.03
20228;BME280;12195;55.790;37.572;2023-04-20T03:55:22;100391.88;;;10.24;37.86
20228;BME280;12195;55.790;37.572;2023-04-20T03:57:56;100395.03;;;10.32;37.73
20228;BME280;12195;55.790;37.572;2023-04-20T04:00:30;100397.41;;;10.38;37.70
20228;BME280;12195;55.790;37.572;2023-04-20T04:03:04;100389.32;;;10.42;37.93
20228;BME280;12195;55.790;37.572;2023-04-20T04:05:37;100387.22;;;10.50;38.08
20228;BME280;12195;55.790;37.572;2023-04-20T04:08:10;100384.19;;;10.59;37.73
20228;BME280;12195;55.790;37.572;2023-04-20T04:10:42;100390.88;;;10.66;37.97
20228;BME280;12195;55.790;37.572;2023-04-20T04:13:14;100379.20;;;10.73;37.58
20228;BME280;12195;55.790;37.572;2023-04-20T04:15:47;100373.52;;;10.82;37.73
20228;BME280;12195;55.790;37.572;2023-04-20T04:18:20;100376.72;;;10.89;37.59
20228;BME280;12195;55.790;37.572;2023-04-20T04:20:53;100372.84;;;10.98;38.02
20228;BME280;12195;55.790;37.572;2023-04-20T04:23:25;100373.28;;;11.07;37.96
20228;BME280;12195;55.790;37.572;2023-04-20T04:26:05;100375.41;;;11.18;37.95
20228;BME280;12195;55.790;37.572;2023-04-20T04:28:39;100372.28;;;11.28;37.48
20228;BME280;12195;55.790;37.572;2023-04-20T04:31:17;100374.47;;;11.37;37.19
20228;BME280;12195;55.790;37.572;2023-04-20T04:33:52;100375.73;;;11.47;37.43
20228;BME280;12195;55.790;37.572;2023-04-20T04:36:26;100370.02;;;11.56;37.25
20228;BME280;12195;55.790;37.572;2023-04-20T04:38:59;100377.36;;;11.68;37.34
20228;BME280;12195;55.790;37.572;2023-04-20T04:41:32;100369.88;;;11.78;36.67
20228;BME280;12195;55.790;37.572;2023-04-20T04:44:08;100370.36;;;11.86;36.84
20228;BME280;12195;55.790;37.572;2023-04-20T04:46:41;100369.89;;;11.95;36.65
20228;BME280;12195;55.790;37.572;2023-04-20T04:49:15;100371.30;;;12.02;36.55
20228;BME280;12195;55.790;37.572;2023-04-20T04:51:49;100363.88;;;12.10;36.63
20228;BME280;12195;55.790;37.572;2023-04-20T04:54:21;100363.59;;;12.16;36.27
20228;BME280;12195;55.790;37.572;2023-04-20T04:56:54;100357.12;;;12.21;36.05
20228;BME280;12195;55.790;37.572;2023-04-20T04:59:28;100350.70;;;12.27;36.11
20228;BME280;12195;55.790;37.572;2023-04-20T05:02:01;100358.31;;;12.33;35.88
20228;BME280;12195;55.790;37.572;2023-04-20T05:04:33;100351.95;;;12.37;35.98
20228;BME280;12195;55.790;37.572;2023-04-20T05:07:06;100353.39;;;12.42;35.96
20228;BME280;12195;55.790;37.572;2023-04-20T05:09:40;100353.09;;;12.48;36.10
20228;BME280;12195;55.790;37.572;2023-04-20T05:12:12;100348.27;;;12.56;35.96
20228;BME280;12195;55.790;37.572;2023-04-20T05:14:44;100345.30;;;12.62;35.65
20228;BME280;12195;55.790;37.572;2023-04-20T05:17:17;100348.46;;;12.69;35.49
20228;BME280;12195;55.790;37.572;2023-04-20T05:19:49;100338.36;;;12.77;35.07
20228;BME280;12195;55.790;37.572;2023-04-20T05:22:21;100342.23;;;12.87;35.35
20228;BME280;12195;55.790;37.572;2023-04-20T05:24:54;100347.00;;;12.96;35.11
20228;BME280;12195;55.790;37.572;2023-04-20T05:27:27;100334.20;;;13.05;34.84
20228;BME280;12195;55.790;37.572;2023-04-20T05:29:59;100339.84;;;13.15;34.94
20228;BME280;12195;55.790;37.572;2023-04-20T05:32:33;100336.69;;;13.24;34.64
20228;BME280;12195;55.790;37.572;2023-04-20T05:35:06;100337.11;;;13.32;34.46
20228;BME280;12195;55.790;37.572;2023-04-20T05:37:38;100328.67;;;13.41;34.54
20228;BME280;12195;55.790;37.572;2023-04-20T05:40:10;100332.41;;;13.52;34.47
20228;BME280;12195;55.790;37.572;2023-04-20T05:42:43;100333.44;;;13.65;34.29
20228;BME280;12195;55.790;37.572;2023-04-20T05:45:15;100331.70;;;13.80;34.37
20228;BME280;12195;55.790;37.572;2023-04-20T05:47:55;100328.31;;;13.92;34.02
20228;BME280;12195;55.790;37.572;2023-04-20T05:50:28;100325.17;;;14.01;33.65
20228;BME280;12195;55.790;37.572;2023-04-20T05:53:01;100322.47;;;14.16;33.73
20228;BME280;12195;55.790;37.572;2023-04-20T05:55:33;100328.66;;;14.31;33.55
20228;BME280;12195;55.790;37.572;2023-04-20T05:58:06;100321.03;;;14.54;32.99
20228;BME280;12195;55.790;37.572;2023-04-20T06:00:38;100322.06;;;14.94;32.70
20228;BME280;12195;55.790;37.572;2023-04-20T06:03:10;100324.00;;;15.46;31.64
20228;BME280;12195;55.790;37.572;2023-04-20T06:05:43;100327.87;;;15.94;30.86
20228;BME280;12195;55.790;37.572;2023-04-20T06:08:16;100318.31;;;16.56;30.04
20228;BME280;12195;55.790;37.572;2023-04-20T06:10:53;100318.69;;;17.12;28.77
20228;BME280;12195;55.790;37.572;2023-04-20T06:13:29;100319.14;;;17.89;28.24
20228;BME280;12195;55.790;37.572;2023-04-20T06:16:02;100319.14;;;17.89;28.24
20228;BME280;12195;55.790;37.572;2023-04-20T06:18:36;100308.39;;;18.25;27.46
20228;BME280;12195;55.790;37.572;2023-04-20T06:21:09;100307.16;;;18.86;26.26
20228;BME280;12195;55.790;37.572;2023-04-20T06:23:41;100317.09;;;19.28;25.50
20228;BME280;12195;55.790;37.572;2023-04-20T06:26:16;100309.41;;;19.45;25.48
20228;BME280;12195;55.790;37.572;2023-04-20T06:28:49;100298.61;;;19.58;24.84
20228;BME280;12195;55.790;37.572;2023-04-20T06:31:23;100308.14;;;19.71;24.83
20228;BME280;12195;55.790;37.572;2023-04-20T06:33:56;100296.02;;;20.10;24.57
20228;BME280;12195;55.790;37.572;2023-04-20T06:36:29;100296.12;;;20.80;23.61
20228;BME280;12195;55.790;37.572;2023-04-20T06:39:01;100289.06;;;21.58;22.43
20228;BME280;12195;55.790;37.572;2023-04-20T06:41:35;100284.73;;;21.66;22.38
20228;BME280;12195;55.790;37.572;2023-04-20T06:44:08;100285.19;;;21.71;22.29
20228;BME280;12195;55.790;37.572;2023-04-20T06:46:40;100284.48;;;22.07;21.94
20228;BME280;12195;55.790;37.572;2023-04-20T06:49:13;100279.19;;;22.44;21.46
20228;BME280;12195;55.790;37.572;2023-04-20T06:51:46;100279.01;;;22.74;21.02
20228;BME280;12195;55.790;37.572;2023-04-20T06:54:18;100283.38;;;23.73;22.12
20228;BME280;12195;55.790;37.572;2023-04-20T06:56:51;100274.11;;;24.20;19.74
20228;BME280;12195;55.790;37.572;2023-04-20T06:59:23;100276.12;;;24.95;18.99
20228;BME280;12195;55.790;37.572;2023-04-20T07:01:56;100267.58;;;25.41;18.67
20228;BME280;12195;55.790;37.572;2023-04-20T07:04:28;100262.64;;;25.94;18.22
20228;BME280;12195;55.790;37.572;2023-04-20T07:07:01;100257.02;;;26.52;17.43
20228;BME280;12195;55.790;37.572;2023-04-20T07:09:34;100253.95;;;26.79;17.01
20228;BME280;12195;55.790;37.572;2023-04-20T07:12:08;100249.25;;;26.57;17.44
20228;BME280;12195;55.790;37.572;2023-04-20T07:14:41;100254.50;;;25.62;18.26
20228;BME280;12195;55.790;37.572;2023-04-20T07:17:15;100252.65;;;24.46;18.74
20228;BME280;12195;55.790;37.572;2023-04-20T07:19:47;100258.23;;;23.39;20.07
20228;BME280;12195;55.790;37.572;2023-04-20T07:22:19;100258.66;;;22.35;20.65
20228;BME280;12195;55.790;37.572;2023-04-20T07:24:52;100258.10;;;21.46;21.83
20228;BME280;12195;55.790;37.572;2023-04-20T07:27:25;100256.94;;;20.80;22.82
20228;BME280;12195;55.790;37.572;2023-04-20T07:29:59;100254.67;;;20.25;23.03
20228;BME280;12195;55.790;37.572;2023-04-20T07:32:34;100258.29;;;19.83;23.78
20228;BME280;12195;55.790;37.572;2023-04-20T07:35:07;100258.67;;;19.47;24.01
20228;BME280;12195;55.790;37.572;2023-04-20T07:37:40;100259.81;;;19.22;24.27
20228;BME280;12195;55.790;37.572;2023-04-20T07:40:12;100262.73;;;19.08;24.29
20228;BME280;12195;55.790;37.572;2023-04-20T07:42:47;100263.98;;;18.93;24.40
20228;BME280;12195;55.790;37.572;2023-04-20T07:45:19;100256.59;;;18.86;23.42
20228;BME280;12195;55.790;37.572;2023-04-20T07:47:52;100245.85;;;18.65;23.06
20228;BME280;12195;55.790;37.572;2023-04-20T07:50:25;100244.77;;;18.46;23.98
20228;BME280;12195;55.790;37.572;2023-04-20T07:52:57;100245.86;;;18.43;24.94
20228;BME280;12195;55.790;37.572;2023-04-20T07:55:30;100242.94;;;18.46;24.25
20228;BME280;12195;55.790;37.572;2023-04-20T07:58:04;100244.40;;;18.61;24.18
20228;BME280;12195;55.790;37.572;2023-04-20T08:00:36;100248.40;;;18.78;23.73
20228;BME280;12195;55.790;37.572;2023-04-20T08:03:09;100238.69;;;18.99;23.40
20228;BME280;12195;55.790;37.572;2023-04-20T08:05:42;100237.82;;;19.09;23.00
20228;BME280;12195;55.790;37.572;2023-04-20T08:08:15;100238.99;;;19.16;22.62
20228;BME280;12195;55.790;37.572;2023-04-20T08:10:48;100240.71;;;19.17;22.50
20228;BME280;12195;55.790;37.572;2023-04-20T08:13:20;100234.41;;;19.18;22.47
20228;BME280;12195;55.790;37.572;2023-04-20T08:15:53;100240.71;;;19.17;21.95
20228;BME280;12195;55.790;37.572;2023-04-20T08:18:25;100240.57;;;19.30;22.19
20228;BME280;12195;55.790;37.572;2023-04-20T08:20:59;100239.20;;;19.46;21.50
20228;BME280;12195;55.790;37.572;2023-04-20T08:23:31;100221.09;;;19.81;20.82
20228;BME280;12195;55.790;37.572;2023-04-20T08:26:05;100227.75;;;20.07;20.31
20228;BME280;12195;55.790;37.572;2023-04-20T08:28:38;100220.37;;;20.41;19.92
20228;BME280;12195;55.790;37.572;2023-04-20T08:31:11;100214.62;;;20.76;20.11
20228;BME280;12195;55.790;37.572;2023-04-20T08:33:44;100204.30;;;20.92;20.23
20228;BME280;12195;55.790;37.572;2023-04-20T08:36:18;100209.73;;;20.90;19.99
20228;BME280;12195;55.790;37.572;2023-04-20T08:38:53;100212.31;;;20.92;20.15
20228;BME280;12195;55.790;37.572;2023-04-20T08:41:26;100210.52;;;21.02;20.31
20228;BME280;12195;55.790;37.572;2023-04-20T08:43:58;100204.22;;;21.12;19.85
20228;BME280;12195;55.790;37.572;2023-04-20T08:46:33;100208.59;;;21.23;19.93
20228;BME280;12195;55.790;37.572;2023-04-20T08:49:10;100207.75;;;21.32;19.29
20228;BME280;12195;55.790;37.572;2023-04-20T08:51:43;100189.19;;;21.40;19.38
20228;BME280;12195;55.790;37.572;2023-04-20T08:54:15;100197.08;;;21.41;19.40
20228;BME280;12195;55.790;37.572;2023-04-20T08:56:48;100190.86;;;21.31;19.07
20228;BME280;12195;55.790;37.572;2023-04-20T08:59:21;100189.17;;;21.21;19.26
20228;BME280;12195;55.790;37.572;2023-04-20T09:01:53;100179.30;;;21.02;19.17
20228;BME280;12195;55.790;37.572;2023-04-20T09:04:26;100196.39;;;20.90;19.39
20228;BME280;12195;55.790;37.572;2023-04-20T09:06:58;100197.18;;;20.72;19.66
20228;BME280;12195;55.790;37.572;2023-04-20T09:09:32;100204.20;;;20.73;19.68
20228;BME280;12195;55.790;37.572;2023-04-20T09:12:06;100193.98;;;20.78;19.81
20228;BME280;12195;55.790;37.572;2023-04-20T09:14:44;100190.22;;;20.90;19.94
20228;BME280;12195;55.790;37.572;2023-04-20T09:17:31;100181.69;;;20.96;18.69
20228;BME280;12195;55.790;37.572;2023-04-20T09:19:53;100181.28;;;21.00;18.55
20228;BME280;12195;55.790;37.572;2023-04-20T09:22:36;100186.03;;;20.97;18.20
20228;BME280;12195;55.790;37.572;2023-04-20T09:25:16;100186.03;;;20.97;18.29
20228;BME280;12195;55.790;37.572;2023-04-20T09:28:00;100176.36;;;21.05;18.28
20228;BME280;12195;55.790;37.572;2023-04-20T09:30:47;100174.97;;;21.11;18.50
20228;BME280;12195;55.790;37.572;2023-04-20T09:33:34;100169.48;;;21.31;18.88
20228;BME280;12195;55.790;37.572;2023-04-20T09:36:04;100171.63;;;21.47;18.79
20228;BME280;12195;55.790;37.572;2023-04-20T09:38:37;100173.84;;;21.61;18.53
20228;BME280;12195;55.790;37.572;2023-04-20T09:41:10;100172.58;;;21.65;18.38
20228;BME280;12195;55.790;37.572;2023-04-20T09:43:44;100172.03;;;21.71;18.81
20228;BME280;12195;55.790;37.572;2023-04-20T09:46:16;100166.94;;;21.87;18.48
20228;BME280;12195;55.790;37.572;2023-04-20T09:48:49;100162.09;;;22.09;17.41
20228;BME280;12195;55.790;37.572;2023-04-20T09:51:30;100164.98;;;22.35;17.69
20228;BME280;12195;55.790;37.572;2023-04-20T09:54:03;100163.41;;;22.42;17.70
20228;BME280;12195;55.790;37.572;2023-04-20T09:56:36;100163.05;;;22.27;17.73
20228;BME280;12195;55.790;37.572;2023-04-20T09:59:11;100156.98;;;22.25;17.73
20228;BME280;12195;55.790;37.572;2023-04-20T10:01:43;100148.80;;;22.27;17.62
20228;BME280;12195;55.790;37.572;2023-04-20T10:04:16;100155.33;;;22.15;18.55
20228;BME280;12195;55.790;37.572;2023-04-20T10:06:53;100147.06;;;21.99;19.04
20228;BME280;12195;55.790;37.572;2023-04-20T10:09:27;100142.73;;;21.88;19.12
20228;BME280;12195;55.790;37.572;2023-04-20T10:12:06;100147.66;;;21.93;19.20
20228;BME280;12195;55.790;37.572;2023-04-20T10:14:39;100142.71;;;21.98;18.84
20228;BME280;12195;55.790;37.572;2023-04-20T10:17:11;100133.17;;;21.86;18.52
20228;BME280;12195;55.790;37.572;2023-04-20T10:19:44;100140.51;;;21.84;18.09
20228;BME280;12195;55.790;37.572;2023-04-20T10:22:31;100124.59;;;21.63;17.96
20228;BME280;12195;55.790;37.572;2023-04-20T10:25:13;100128.14;;;21.45;18.65
20228;BME280;12195;55.790;37.572;2023-04-20T10:27:39;100126.19;;;21.47;18.16
20228;BME280;12195;55.790;37.572;2023-04-20T10:30:12;100136.15;;;21.64;18.19
20228;BME280;12195;55.790;37.572;2023-04-20T10:32:46;100131.75;;;21.91;17.99
20228;BME280;12195;55.790;37.572;2023-04-20T10:35:18;100131.70;;;22.10;17.86
20228;BME280;12195;55.790;37.572;2023-04-20T10:37:51;100137.17;;;22.18;17.83
20228;BME280;12195;55.790;37.572;2023-04-20T10:40:25;100130.11;;;22.17;18.08
20228;BME280;12195;55.790;37.572;2023-04-20T10:42:57;100121.11;;;22.18;17.79
20228;BME280;12195;55.790;37.572;2023-04-20T10:45:36;100123.45;;;21.94;18.23
20228;BME280;12195;55.790;37.572;2023-04-20T10:48:12;100126.00;;;21.67;18.33
20228;BME280;12195;55.790;37.572;2023-04-20T10:50:46;100119.71;;;21.40;18.51
20228;BME280;12195;55.790;37.572;2023-04-20T10:53:21;100119.71;;;21.30;19.14
20228;BME280;12195;55.790;37.572;2023-04-20T10:56:00;100119.03;;;21.28;19.16
20228;BME280;12195;55.790;37.572;2023-04-20T10:58:32;100117.73;;;21.42;19.37
20228;BME280;12195;55.790;37.572;2023-04-20T11:01:04;100113.48;;;21.68;19.17
20228;BME280;12195;55.790;37.572;2023-04-20T11:03:37;100119.94;;;21.84;18.92
20228;BME280;12195;55.790;37.572;2023-04-20T11:06:10;100112.49;;;21.88;18.88
20228;BME280;12195;55.790;37.572;2023-04-20T11:08:42;100114.55;;;22.03;18.54
20228;BME280;12195;55.790;37.572;2023-04-20T11:11:22;100112.23;;;22.18;18.49
20228;BME280;12195;55.790;37.572;2023-04-20T11:14:10;100098.02;;;22.44;18.30
20228;BME280;12195;55.790;37.572;2023-04-20T11:16:50;100107.34;;;22.67;17.33
20228;BME280;12195;55.790;37.572;2023-04-20T11:19:27;100091.92;;;22.79;17.49
20228;BME280;12195;55.790;37.572;2023-04-20T11:22:03;100091.00;;;22.88;18.44
20228;BME280;12195;55.790;37.572;2023-04-20T11:24:36;100097.22;;;22.88;18.89
20228;BME280;12195;55.790;37.572;2023-04-20T11:27:18;100092.16;;;22.85;19.34
20228;BME280;12195;55.790;37.572;2023-04-20T11:29:56;100089.00;;;22.90;19.37
20228;BME280;12195;55.790;37.572;2023-04-20T11:32:33;100089.16;;;22.71;18.93
20228;BME280;12195;55.790;37.572;2023-04-20T11:35:08;100094.91;;;22.49;19.09
20228;BME280;12195;55.790;37.572;2023-04-20T11:37:47;100084.97;;;22.32;19.48
20228;BME280;12195;55.790;37.572;2023-04-20T11:40:21;100090.01;;;22.08;19.71
20228;BME280;12195;55.790;37.572;2023-04-20T11:42:56;100090.92;;;21.89;19.92
20228;BME280;12195;55.790;37.572;2023-04-20T11:45:31;100095.47;;;21.79;19.83
20228;BME280;12195;55.790;37.572;2023-04-20T11:48:06;100086.61;;;21.69;20.09
20228;BME280;12195;55.790;37.572;2023-04-20T11:50:38;100080.01;;;21.64;20.13
20228;BME280;12195;55.790;37.572;2023-04-20T11:53:12;100076.34;;;21.65;20.53
20228;BME280;12195;55.790;37.572;2023-04-20T11:55:45;100073.41;;;21.58;20.08
20228;BME280;12195;55.790;37.572;2023-04-20T11:58:17;100069.59;;;21.61;20.34
20228;BME280;12195;55.790;37.572;2023-04-20T12:00:49;100067.48;;;21.74;20.20
20228;BME280;12195;55.790;37.572;2023-04-20T12:03:22;100063.38;;;21.79;20.05
20228;BME280;12195;55.790;37.572;2023-04-20T12:05:55;100068.19;;;21.76;20.01
20228;BME280;12195;55.790;37.572;2023-04-20T12:08:27;100062.75;;;21.95;19.78
20228;BME280;12195;55.790;37.572;2023-04-20T12:10:59;100053.87;;;22.58;18.87
20228;BME280;12195;55.790;37.572;2023-04-20T12:13:32;100047.53;;;23.80;17.76
20228;BME280;12195;55.790;37.572;2023-04-20T12:16:05;100047.59;;;25.91;16.30
20228;BME280;12195;55.790;37.572;2023-04-20T12:18:37;100048.10;;;28.34;14.40
20228;BME280;12195;55.790;37.572;2023-04-20T12:21:10;100040.25;;;30.55;12.60
20228;BME280;12195;55.790;37.572;2023-04-20T12:23:43;100031.12;;;32.25;11.51
20228;BME280;12195;55.790;37.572;2023-04-20T12:26:15;100023.58;;;33.64;10.46
20228;BME280;12195;55.790;37.572;2023-04-20T12:28:47;100014.13;;;34.75;9.89
20228;BME280;12195;55.790;37.572;2023-04-20T12:31:19;100014.72;;;35.82;9.12
20228;BME280;12195;55.790;37.572;2023-04-20T12:33:55;100008.67;;;36.42;8.71
20228;BME280;12195;55.790;37.572;2023-04-20T12:36:27;100002.32;;;37.09;8.42
20228;BME280;12195;55.790;37.572;2023-04-20T12:39:00;99993.02;;;38.15;7.87
20228;BME280;12195;55.790;37.572;2023-04-20T12:41:33;99991.97;;;39.17;7.47
20228;BME280;12195;55.790;37.572;2023-04-20T12:44:06;99982.84;;;40.31;6.99
20228;BME280;12195;55.790;37.572;2023-04-20T12:46:39;99972.02;;;41.06;6.55
20228;BME280;12195;55.790;37.572;2023-04-20T12:49:12;99986.59;;;41.92;6.17
20228;BME280;12195;55.790;37.572;2023-04-20T12:51:44;99973.88;;;42.59;5.79
20228;BME280;12195;55.790;37.572;2023-04-20T12:54:16;99974.73;;;43.32;5.54
20228;BME280;12195;55.790;37.572;2023-04-20T12:56:49;99964.14;;;43.44;5.27
20228;BME280;12195;55.790;37.572;2023-04-20T12:59:21;99968.16;;;41.47;6.10
20228;BME280;12195;55.790;37.572;2023-04-20T13:01:54;99975.14;;;38.82;6.99
20228;BME280;12195;55.790;37.572;2023-04-20T13:04:26;99962.59;;;36.11;8.13
20228;BME280;12195;55.790;37.572;2023-04-20T13:06:59;99972.72;;;33.76;9.31
20228;BME280;12195;55.790;37.572;2023-04-20T13:09:31;99972.88;;;32.52;10.13
20228;BME280;12195;55.790;37.572;2023-04-20T13:12:03;99968.44;;;32.95;9.88
20228;BME280;12195;55.790;37.572;2023-04-20T13:14:36;99963.52;;;32.41;10.21
20228;BME280;12195;55.790;37.572;2023-04-20T13:17:08;99965.14;;;32.05;10.57
20228;BME280;12195;55.790;37.572;2023-04-20T13:19:40;99964.29;;;32.04;10.41